This is the latest recevied weather packets stored in our database for station/object CE3JSG-13. If no packets are shown the sender has not sent any weather packets the latest 10 day(s).
| Time | Temp. | Humidity | Pressure | Rain* | Wind** | Luminosity | Snow |
|---|---|---|---|---|---|---|---|
| 1777597155 | 14.44° C | 91% | 1016.5 hPa | - | - | - | - |
| 1777596735 | 15° C | 90% | 1016 hPa | - | - | - | - |
| 1777596315 | 15° C | 90% | 1016 hPa | - | - | - | - |
| 1777595895 | 15° C | 89% | 1015.3 hPa | - | - | - | - |
| 1777595475 | 15° C | 90% | 1015.6 hPa | - | - | - | - |
| 1777595055 | 15° C | 90% | 1015.4 hPa | - | - | - | - |
| 1777594635 | 15° C | 90% | 1015.7 hPa | - | - | - | - |
| 1777594215 | 15° C | 88% | 1015.1 hPa | - | - | - | - |
| 1777593795 | 15° C | 88% | 1014.6 hPa | - | - | - | - |
| 1777593375 | 15° C | 89% | 1015.5 hPa | - | - | - | - |
| 1777592955 | 15.56° C | 85% | 1014.7 hPa | - | - | - | - |
| 1777592535 | 15.56° C | 84% | 1014.9 hPa | - | - | - | - |
| 1777592115 | 15.56° C | 82% | 1015.1 hPa | - | - | - | - |
| 1777591695 | 16.11° C | 79% | 1014.8 hPa | - | - | - | - |
| 1777591275 | 16.67° C | 76% | 1014.4 hPa | - | - | - | - |
| 1777590855 | 17.22° C | 74% | 1014.1 hPa | - | - | - | - |
| 1777590435 | 17.22° C | 73% | 1013.9 hPa | - | - | - | - |
| 1777590015 | 17.78° C | 71% | 1013.6 hPa | - | - | - | - |
| 1777589596 | 17.78° C | 70% | 1013.5 hPa | - | - | - | - |
| 1777589175 | 17.78° C | 70% | 1013.3 hPa | - | - | - | - |
| 1777588755 | 18.33° C | 69% | 1013.3 hPa | - | - | - | - |
| 1777588336 | 18.33° C | 67% | 1012.8 hPa | - | - | - | - |
| 1777587915 | 18.89° C | 67% | 1012.7 hPa | - | - | - | - |
| 1777587495 | 18.89° C | 65% | 1013 hPa | - | - | - | - |
| 1777587075 | 19.44° C | 63% | 1013.1 hPa | - | - | - | - |
* Rain since midnight (hover to see other rain measurements)
** Current wind speed in m/s (hover to see current wind gust speed)